createdAt,value
2023-10-29T00:01:44.510Z,85.89
2023-10-29T00:04:11.604Z,87.56
2023-10-29T00:06:38.487Z,85.58
2023-10-29T00:09:05.375Z,86.95
2023-10-29T00:11:32.310Z,86.30
2023-10-29T00:14:01.010Z,85.04
2023-10-29T00:16:27.888Z,86.48
2023-10-29T00:18:54.848Z,85.79
2023-10-29T00:21:22.050Z,85.82
2023-10-29T00:23:48.973Z,83.55
2023-10-29T00:26:15.970Z,84.05
2023-10-29T00:28:42.871Z,85.10
2023-10-29T00:31:09.784Z,86.58
2023-10-29T00:33:36.664Z,83.93
2023-10-29T00:36:04.325Z,83.66
2023-10-29T00:38:31.330Z,83.22
2023-10-29T00:40:58.216Z,84.99
2023-10-29T00:43:25.119Z,84.69
2023-10-29T00:45:55.681Z,83.44
2023-10-29T00:48:26.186Z,82.96
2023-10-29T00:50:54.137Z,80.93
2023-10-29T00:53:21.801Z,83.70
2023-10-29T00:55:49.526Z,83.94
2023-10-29T00:58:18.017Z,82.66
2023-10-29T01:00:47.017Z,82.55
2023-10-29T01:03:14.059Z,80.15
2023-10-29T01:05:41.297Z,82.57
2023-10-29T01:08:09.627Z,81.44
2023-10-29T01:10:36.462Z,80.80
2023-10-29T01:13:03.369Z,83.52
2023-10-29T01:15:30.398Z,82.92
2023-10-29T01:17:57.423Z,81.03
2023-10-29T01:20:24.461Z,79.87
2023-10-29T01:22:51.581Z,79.67
2023-10-29T01:25:18.488Z,80.10
2023-10-29T01:27:46.151Z,80.56
2023-10-29T01:30:13.768Z,82.00
2023-10-29T01:32:41.199Z,82.80
2023-10-29T01:35:08.590Z,80.14
2023-10-29T01:37:35.604Z,81.38
2023-10-29T01:40:02.677Z,79.88
2023-10-29T01:42:29.560Z,79.28
2023-10-29T01:44:56.512Z,80.27
2023-10-29T01:47:23.428Z,80.10
2023-10-29T01:49:50.780Z,78.10
2023-10-29T01:52:17.642Z,79.82
2023-10-29T01:54:45.370Z,78.13
2023-10-29T01:57:12.428Z,78.08
2023-10-29T01:59:39.357Z,76.88
2023-10-29T02:02:06.640Z,76.28
2023-10-29T02:04:35.262Z,75.91
2023-10-29T02:07:02.134Z,75.46
2023-10-29T02:09:29.389Z,75.32
2023-10-29T02:11:56.340Z,75.42
2023-10-29T02:14:23.380Z,75.71
2023-10-29T02:16:50.927Z,75.75
2023-10-29T02:19:17.808Z,75.67
2023-10-29T02:21:44.665Z,76.21
2023-10-29T02:24:11.565Z,77.23
2023-10-29T02:26:38.473Z,77.86
2023-10-29T02:29:05.512Z,77.23
2023-10-29T02:31:32.425Z,78.94
2023-10-29T02:33:59.509Z,78.82
2023-10-29T02:36:26.405Z,79.66
2023-10-29T02:38:53.273Z,80.44
2023-10-29T02:41:20.160Z,77.87
2023-10-29T02:43:47.012Z,79.69
2023-10-29T02:46:14.005Z,79.95
2023-10-29T02:48:40.874Z,79.81
2023-10-29T02:51:13.055Z,80.42
2023-10-29T02:53:40.613Z,82.25
2023-10-29T02:56:07.717Z,81.48
2023-10-29T02:58:35.378Z,81.04
2023-10-29T03:01:09.922Z,80.85
2023-10-29T03:03:39.133Z,82.26
2023-10-29T03:06:08.410Z,82.16
2023-10-29T03:08:37.254Z,83.34
2023-10-29T03:11:04.956Z,81.88
2023-10-29T03:13:31.906Z,81.22
2023-10-29T03:15:59.049Z,81.59
2023-10-29T03:18:26.141Z,80.72
2023-10-29T03:20:53.121Z,80.30
2023-10-29T03:23:20.033Z,79.76
2023-10-29T03:25:47.030Z,79.70
2023-10-29T03:28:13.914Z,80.16
2023-10-29T03:30:40.823Z,80.27
2023-10-29T03:33:07.936Z,79.30
2023-10-29T03:35:35.458Z,79.68
2023-10-29T03:38:02.365Z,81.63
2023-10-29T03:40:29.236Z,80.77
2023-10-29T03:42:56.124Z,79.75
2023-10-29T03:45:23.025Z,79.04
2023-10-29T03:47:49.991Z,79.99
2023-10-29T03:50:18.589Z,79.47
2023-10-29T03:52:45.494Z,79.92
2023-10-29T03:55:12.401Z,79.43
2023-10-29T03:57:40.016Z,77.94
2023-10-29T04:00:07.859Z,77.61
2023-10-29T04:02:35.316Z,77.68
2023-10-29T04:05:09.528Z,77.79
2023-10-29T04:07:38.406Z,77.07
2023-10-29T04:10:06.243Z,77.23
2023-10-29T04:12:33.709Z,76.08
2023-10-29T04:15:01.046Z,76.12
2023-10-29T04:17:28.335Z,76.18
2023-10-29T04:19:55.479Z,75.29
2023-10-29T04:22:24.062Z,75.97
2023-10-29T04:24:51.974Z,75.70
2023-10-29T04:27:18.960Z,74.60
2023-10-29T04:29:45.898Z,74.70
2023-10-29T04:32:13.483Z,75.55
2023-10-29T04:34:40.386Z,75.16
2023-10-29T04:37:07.361Z,75.75
2023-10-29T04:39:34.260Z,74.99
2023-10-29T04:42:02.720Z,75.25
2023-10-29T04:44:29.962Z,75.50
2023-10-29T04:46:56.877Z,76.32
2023-10-29T04:49:23.809Z,74.97
2023-10-29T04:51:50.768Z,75.40
2023-10-29T04:54:17.771Z,75.62
2023-10-29T04:56:44.780Z,75.63
2023-10-29T04:59:11.675Z,75.25
2023-10-29T05:01:38.970Z,74.63
2023-10-29T05:04:06.176Z,74.65
2023-10-29T05:06:33.118Z,75.44
2023-10-29T05:09:00.015Z,75.68
2023-10-29T05:11:27.021Z,73.89
2023-10-29T05:13:54.063Z,73.67
2023-10-29T05:16:21.950Z,73.87
2023-10-29T05:18:49.105Z,73.43
2023-10-29T05:21:16.064Z,73.63
2023-10-29T05:23:42.947Z,73.51
2023-10-29T05:26:09.835Z,73.78
2023-10-29T05:28:36.722Z,74.00
2023-10-29T05:31:04.073Z,73.02
2023-10-29T05:33:31.132Z,72.52
2023-10-29T05:35:58.981Z,72.86
2023-10-29T05:38:26.081Z,73.00
2023-10-29T05:40:52.997Z,72.41
2023-10-29T05:43:19.889Z,72.42
2023-10-29T05:45:47.652Z,72.23
2023-10-29T05:48:14.616Z,72.43
2023-10-29T05:50:41.649Z,72.83
2023-10-29T05:53:08.514Z,72.12
2023-10-29T05:55:36.856Z,72.02
2023-10-29T05:58:04.363Z,72.32
2023-10-29T06:00:31.355Z,72.37
2023-10-29T06:02:58.553Z,72.14
2023-10-29T06:05:25.705Z,71.01
2023-10-29T06:07:52.560Z,71.23
2023-10-29T06:10:19.454Z,71.90
2023-10-29T06:12:46.427Z,72.18
2023-10-29T06:15:13.691Z,75.44
2023-10-29T06:17:43.331Z,76.83
2023-10-29T06:20:12.116Z,75.32
2023-10-29T06:22:39.104Z,77.31
2023-10-29T06:25:06.690Z,73.75
2023-10-29T06:27:33.566Z,74.13
2023-10-29T06:30:01.212Z,74.19
2023-10-29T06:32:33.815Z,73.36
2023-10-29T06:35:09.601Z,73.28
2023-10-29T06:37:37.099Z,72.63
2023-10-29T06:40:04.379Z,72.72
2023-10-29T06:42:31.237Z,74.11
2023-10-29T06:44:58.232Z,72.94
2023-10-29T06:47:25.139Z,71.91
2023-10-29T06:49:55.017Z,72.63
2023-10-29T06:52:22.726Z,71.43
2023-10-29T06:54:49.913Z,72.83
2023-10-29T06:57:16.908Z,71.22
2023-10-29T06:59:44.564Z,71.65
2023-10-29T07:02:11.507Z,71.57
2023-10-29T07:04:38.416Z,70.48
2023-10-29T07:07:05.302Z,69.66
2023-10-29T07:09:32.970Z,70.18
2023-10-29T07:11:59.844Z,69.67
2023-10-29T07:14:26.928Z,69.39
2023-10-29T07:16:53.834Z,69.47
2023-10-29T07:19:20.766Z,70.61
2023-10-29T07:21:47.692Z,69.81
2023-10-29T07:24:15.765Z,70.42
2023-10-29T07:26:42.706Z,70.75
2023-10-29T07:29:09.731Z,70.53
2023-10-29T07:31:36.627Z,70.00
2023-10-29T07:34:03.695Z,69.97
2023-10-29T07:36:30.668Z,69.53
2023-10-29T07:38:58.388Z,71.98
2023-10-29T07:41:25.561Z,70.02
2023-10-29T07:43:52.464Z,70.42
2023-10-29T07:46:19.331Z,70.52
2023-10-29T07:48:46.196Z,69.33
2023-10-29T07:51:13.122Z,69.55
2023-10-29T07:53:40.094Z,69.94
2023-10-29T07:56:15.071Z,69.93
2023-10-29T07:58:42.641Z,69.86
2023-10-29T08:01:18.605Z,69.99
2023-10-29T08:03:47.444Z,69.33
2023-10-29T08:06:15.331Z,70.89
2023-10-29T08:08:42.412Z,70.13
2023-10-29T08:11:20.187Z,69.67
2023-10-29T08:13:47.787Z,70.12
2023-10-29T08:16:15.093Z,69.38
2023-10-29T08:18:42.910Z,70.12
2023-10-29T08:21:09.928Z,68.61
2023-10-29T08:23:37.478Z,69.13
2023-10-29T08:26:04.634Z,69.61
2023-10-29T08:28:32.383Z,69.53
2023-10-29T08:30:59.817Z,69.54
2023-10-29T08:33:28.037Z,69.52
2023-10-29T08:35:55.312Z,68.92
2023-10-29T08:38:22.266Z,70.35
2023-10-29T08:40:49.316Z,69.71
2023-10-29T08:43:17.322Z,69.73
2023-10-29T08:45:44.427Z,69.78
2023-10-29T08:48:12.084Z,69.76
2023-10-29T08:50:40.223Z,70.07
2023-10-29T08:53:07.156Z,69.23
2023-10-29T08:55:39.492Z,70.04
2023-10-29T08:58:06.412Z,70.51
2023-10-29T09:00:45.123Z,69.55
2023-10-29T09:03:16.103Z,69.03
2023-10-29T09:05:44.362Z,69.25
2023-10-29T09:08:12.385Z,69.58
2023-10-29T09:10:44.013Z,69.76
2023-10-29T09:13:11.705Z,69.01
2023-10-29T09:15:39.260Z,68.44
2023-10-29T09:18:06.827Z,68.68
2023-10-29T09:20:33.860Z,69.41
2023-10-29T09:23:00.759Z,69.54
2023-10-29T09:25:27.607Z,68.98
2023-10-29T09:27:54.723Z,69.05
2023-10-29T09:30:21.658Z,68.48
2023-10-29T09:32:48.544Z,68.17
2023-10-29T09:35:15.552Z,67.67
2023-10-29T09:37:45.658Z,68.64
2023-10-29T09:40:15.510Z,69.35
2023-10-29T09:42:57.124Z,68.78
2023-10-29T09:45:26.727Z,69.51
2023-10-29T09:47:55.267Z,69.16
2023-10-29T09:50:23.205Z,69.46
2023-10-29T09:52:51.952Z,68.97
2023-10-29T09:55:23.970Z,68.97
2023-10-29T09:57:51.886Z,68.29
2023-10-29T10:00:19.773Z,68.43
2023-10-29T10:02:59.549Z,69.44
2023-10-29T10:05:31.518Z,69.24
2023-10-29T10:07:58.879Z,69.08
2023-10-29T10:10:46.155Z,68.30
2023-10-29T10:13:13.938Z,68.08
2023-10-29T10:15:40.877Z,69.30
2023-10-29T10:18:07.877Z,68.71
2023-10-29T10:20:36.898Z,66.97
2023-10-29T10:23:10.573Z,67.26
2023-10-29T10:25:37.435Z,66.87
2023-10-29T10:28:06.422Z,67.48
2023-10-29T10:30:38.740Z,66.55
2023-10-29T10:33:20.507Z,66.18
2023-10-29T10:35:52.050Z,66.19
2023-10-29T10:38:21.323Z,65.89
2023-10-29T10:40:59.173Z,65.69
2023-10-29T10:43:27.956Z,65.09
2023-10-29T10:45:56.645Z,66.00
2023-10-29T10:48:24.392Z,66.29
2023-10-29T10:50:54.523Z,65.34
2023-10-29T10:53:26.674Z,65.60
2023-10-29T10:56:03.999Z,63.89
2023-10-29T10:58:34.113Z,64.27
2023-10-29T11:01:04.096Z,63.37
2023-10-29T11:03:34.624Z,63.28
2023-10-29T11:06:02.016Z,62.39
2023-10-29T11:08:29.442Z,62.37
2023-10-29T11:10:59.796Z,61.32
2023-10-29T11:13:27.949Z,62.05
2023-10-29T11:15:56.657Z,62.83
2023-10-29T11:18:34.063Z,61.45
2023-10-29T11:21:04.323Z,62.34
2023-10-29T11:23:32.267Z,61.13
2023-10-29T11:26:24.957Z,62.39
2023-10-29T11:28:54.532Z,60.80
2023-10-29T11:31:23.806Z,60.79
2023-10-29T11:33:56.746Z,59.65
2023-10-29T11:36:39.409Z,59.29
2023-10-29T11:39:36.513Z,59.15
2023-10-29T11:42:28.399Z,59.64
2023-10-29T11:45:27.065Z,59.59
2023-10-29T11:48:10.168Z,58.51
2023-10-29T11:50:39.127Z,59.59
2023-10-29T11:53:08.145Z,60.56
2023-10-29T11:55:43.854Z,61.54
2023-10-29T11:58:10.754Z,62.04
2023-10-29T12:00:42.368Z,62.44
2023-10-29T12:03:10.032Z,61.45
2023-10-29T12:05:37.632Z,62.52
2023-10-29T12:08:05.561Z,62.25
2023-10-29T12:10:32.810Z,62.79
2023-10-29T12:12:59.670Z,61.18
2023-10-29T12:15:27.969Z,62.48
2023-10-29T12:17:55.375Z,63.59
2023-10-29T12:20:30.285Z,62.93
2023-10-29T12:22:59.466Z,64.23
2023-10-29T12:25:27.977Z,63.39
2023-10-29T12:27:56.369Z,63.12
2023-10-29T12:30:44.119Z,64.09
2023-10-29T12:33:28.372Z,66.83
2023-10-29T12:35:58.903Z,68.91
2023-10-29T12:38:26.581Z,70.38
2023-10-29T12:41:08.121Z,72.20
2023-10-29T12:43:43.552Z,70.01
2023-10-29T12:46:23.796Z,68.91
2023-10-29T12:49:06.149Z,68.67
2023-10-29T12:51:38.747Z,72.83
2023-10-29T12:54:26.929Z,78.07
2023-10-29T12:57:06.875Z,80.23
2023-10-29T12:59:34.792Z,82.07
2023-10-29T13:02:07.529Z,84.01
2023-10-29T13:04:38.210Z,83.66
2023-10-29T13:07:13.138Z,85.32
2023-10-29T13:09:41.761Z,84.49
2023-10-29T13:12:10.648Z,85.73
2023-10-29T13:14:38.360Z,85.28
2023-10-29T13:17:08.475Z,84.99
2023-10-29T13:19:36.645Z,84.52
2023-10-29T13:22:04.101Z,85.13
2023-10-29T13:24:33.904Z,84.46
2023-10-29T13:27:03.202Z,85.20
2023-10-29T13:29:30.173Z,85.13
2023-10-29T13:31:57.112Z,85.03
2023-10-29T13:34:24.349Z,84.72
2023-10-29T13:36:51.209Z,84.54
2023-10-29T13:39:20.231Z,83.29
2023-10-29T13:41:49.665Z,84.46
2023-10-29T13:44:18.371Z,83.79
2023-10-29T13:46:45.846Z,84.16
2023-10-29T13:49:12.882Z,84.55
2023-10-29T13:51:40.750Z,84.23
2023-10-29T13:54:09.906Z,85.07
2023-10-29T13:56:36.945Z,85.38
2023-10-29T13:59:03.870Z,83.94
2023-10-29T14:01:30.999Z,84.33
2023-10-29T14:03:58.873Z,84.06
2023-10-29T14:06:27.652Z,83.60
2023-10-29T14:08:54.517Z,82.61
2023-10-29T14:11:21.454Z,81.56
2023-10-29T14:13:51.257Z,81.64
2023-10-29T14:16:19.759Z,83.85
2023-10-29T14:18:47.367Z,82.83
2023-10-29T14:21:14.405Z,81.85
2023-10-29T14:23:42.003Z,82.23
2023-10-29T14:26:09.381Z,82.73
2023-10-29T14:28:36.232Z,81.66
2023-10-29T14:31:03.278Z,82.29
2023-10-29T14:33:30.459Z,82.34
2023-10-29T14:35:59.178Z,81.06
2023-10-29T14:38:26.110Z,81.43
2023-10-29T14:40:54.809Z,80.56
2023-10-29T14:43:23.629Z,81.68
2023-10-29T14:45:53.259Z,80.78
2023-10-29T14:48:21.576Z,80.26
2023-10-29T14:50:49.508Z,80.77
2023-10-29T14:53:16.804Z,81.37
2023-10-29T14:55:49.203Z,80.25
2023-10-29T14:58:16.629Z,80.05
2023-10-29T15:00:46.845Z,81.08
2023-10-29T15:03:14.368Z,80.51
2023-10-29T15:05:42.427Z,79.69
2023-10-29T15:08:09.326Z,80.52
2023-10-29T15:10:36.589Z,80.86
2023-10-29T15:13:04.569Z,80.52
2023-10-29T15:15:33.522Z,81.33
2023-10-29T15:18:00.558Z,80.79
2023-10-29T15:20:28.200Z,80.33
2023-10-29T15:22:56.509Z,80.60
2023-10-29T15:25:23.443Z,79.85
2023-10-29T15:27:50.331Z,78.12
2023-10-29T15:30:17.296Z,77.88
2023-10-29T15:32:44.255Z,77.10
2023-10-29T15:35:11.239Z,76.33
2023-10-29T15:37:39.752Z,75.65
2023-10-29T15:40:07.977Z,76.20
2023-10-29T15:42:35.065Z,75.74
2023-10-29T15:45:02.348Z,75.15
2023-10-29T15:47:29.505Z,74.15
2023-10-29T15:49:56.523Z,73.93
2023-10-29T15:52:23.851Z,74.55
2023-10-29T15:54:51.413Z,73.28
2023-10-29T15:57:19.456Z,73.18
2023-10-29T15:59:46.623Z,73.15
2023-10-29T16:02:13.526Z,73.50
2023-10-29T16:04:40.610Z,73.01
2023-10-29T16:07:09.572Z,72.27
2023-10-29T16:09:37.073Z,73.49
2023-10-29T16:12:09.057Z,72.15
2023-10-29T16:14:37.225Z,72.29
2023-10-29T16:17:04.744Z,71.45
2023-10-29T16:19:32.465Z,71.78
2023-10-29T16:21:59.432Z,71.01
2023-10-29T16:24:29.471Z,70.97
2023-10-29T16:26:58.163Z,70.03
2023-10-29T16:29:25.521Z,70.38
2023-10-29T16:31:52.890Z,69.81
2023-10-29T16:34:20.264Z,70.53
2023-10-29T16:36:47.419Z,70.35
2023-10-29T16:39:14.308Z,69.84
2023-10-29T16:41:42.118Z,67.98
2023-10-29T16:44:09.057Z,68.72
2023-10-29T16:46:36.210Z,69.51
2023-10-29T16:49:03.555Z,69.25
2023-10-29T16:51:30.727Z,68.32
2023-10-29T16:53:57.721Z,69.87
2023-10-29T16:56:24.631Z,68.90
2023-10-29T16:58:51.524Z,68.61
2023-10-29T17:01:19.209Z,69.99
2023-10-29T17:03:47.138Z,69.86
2023-10-29T17:06:15.864Z,70.06
2023-10-29T17:08:43.132Z,70.34
2023-10-29T17:11:10.119Z,70.30
2023-10-29T17:13:37.085Z,69.80
2023-10-29T17:16:05.748Z,69.48
2023-10-29T17:18:33.814Z,69.57
2023-10-29T17:21:02.720Z,69.41
2023-10-29T17:23:29.823Z,69.47
2023-10-29T17:25:58.056Z,69.72
2023-10-29T17:28:25.320Z,71.86
2023-10-29T17:30:52.217Z,69.60
2023-10-29T17:33:19.166Z,69.91
2023-10-29T17:35:46.607Z,70.19
2023-10-29T17:38:13.516Z,69.72
2023-10-29T17:40:40.415Z,70.21
2023-10-29T17:43:07.579Z,70.15
2023-10-29T17:45:39.094Z,70.29
2023-10-29T17:48:06.795Z,70.83
2023-10-29T17:50:33.918Z,71.19
2023-10-29T17:53:03.992Z,70.28
2023-10-29T17:55:31.093Z,69.28
2023-10-29T17:58:00.960Z,69.90
2023-10-29T18:00:28.288Z,69.89
2023-10-29T18:02:55.794Z,70.71
2023-10-29T18:05:24.357Z,70.70
2023-10-29T18:07:51.298Z,70.24
2023-10-29T18:10:18.704Z,69.95
2023-10-29T18:12:46.106Z,70.07
2023-10-29T18:15:13.157Z,69.96
2023-10-29T18:17:40.193Z,70.07
2023-10-29T18:20:07.864Z,71.17
2023-10-29T18:22:34.698Z,70.01
2023-10-29T18:25:01.643Z,70.75
2023-10-29T18:27:28.540Z,70.76
2023-10-29T18:29:55.639Z,70.77
2023-10-29T18:32:22.588Z,69.86
2023-10-29T18:34:49.601Z,70.22
2023-10-29T18:37:16.642Z,70.12
2023-10-29T18:39:43.511Z,70.47
2023-10-29T18:42:10.705Z,70.89
2023-10-29T18:44:37.599Z,70.41
2023-10-29T18:47:05.202Z,71.05
2023-10-29T18:49:32.124Z,71.14
2023-10-29T18:51:58.955Z,71.45
2023-10-29T18:54:26.842Z,70.14
2023-10-29T18:56:54.106Z,70.54
2023-10-29T18:59:22.858Z,70.38
2023-10-29T19:01:50.531Z,70.15
2023-10-29T19:04:17.547Z,69.94
2023-10-29T19:06:44.981Z,69.65
2023-10-29T19:09:12.583Z,70.01
2023-10-29T19:11:39.478Z,70.41
2023-10-29T19:14:06.563Z,69.44
2023-10-29T19:16:33.670Z,70.55
2023-10-29T19:19:02.587Z,69.71
2023-10-29T19:21:29.861Z,70.99
2023-10-29T19:23:57.133Z,70.50
2023-10-29T19:26:24.462Z,70.25
2023-10-29T19:28:51.623Z,70.56
2023-10-29T19:31:26.597Z,69.68
2023-10-29T19:33:55.661Z,69.50
2023-10-29T19:36:22.720Z,69.97
2023-10-29T19:38:49.628Z,68.95
2023-10-29T19:41:16.607Z,69.20
2023-10-29T19:43:43.536Z,69.43
2023-10-29T19:46:11.411Z,66.86
2023-10-29T19:48:38.567Z,67.54
2023-10-29T19:51:09.164Z,67.25
2023-10-29T19:53:37.643Z,67.11
2023-10-29T19:56:09.126Z,64.62
2023-10-29T19:58:36.415Z,66.85
2023-10-29T20:01:11.870Z,66.46
2023-10-29T20:03:40.869Z,64.59
2023-10-29T20:06:13.196Z,63.87
2023-10-29T20:08:43.350Z,64.53
2023-10-29T20:11:15.585Z,64.29
2023-10-29T20:13:45.994Z,64.29
2023-10-29T20:16:13.355Z,65.09
2023-10-29T20:18:40.337Z,65.60
2023-10-29T20:21:16.953Z,65.44
2023-10-29T20:23:45.836Z,65.89
2023-10-29T20:26:17.820Z,65.75
2023-10-29T20:28:47.385Z,65.73
2023-10-29T20:31:14.290Z,65.14
2023-10-29T20:33:41.310Z,66.49
2023-10-29T20:36:08.590Z,65.71
2023-10-29T20:38:36.209Z,66.84
2023-10-29T20:41:10.200Z,67.15
2023-10-29T20:43:38.569Z,67.39
2023-10-29T20:46:05.733Z,66.63
2023-10-29T20:48:32.707Z,66.99
2023-10-29T20:50:59.632Z,67.13
2023-10-29T20:53:28.427Z,67.36
2023-10-29T20:55:55.582Z,66.74
2023-10-29T20:58:22.522Z,66.81
2023-10-29T21:00:52.630Z,66.78
2023-10-29T21:03:20.034Z,67.75
2023-10-29T21:05:47.484Z,67.28
2023-10-29T21:08:15.191Z,66.80
2023-10-29T21:10:42.278Z,67.38
2023-10-29T21:13:09.146Z,67.05
2023-10-29T21:15:40.836Z,66.98
2023-10-29T21:18:07.898Z,68.21
2023-10-29T21:20:35.340Z,67.53
2023-10-29T21:23:02.258Z,67.65
2023-10-29T21:25:29.108Z,68.10
2023-10-29T21:27:56.055Z,68.37
2023-10-29T21:30:23.025Z,68.05
2023-10-29T21:32:49.937Z,68.48
2023-10-29T21:35:16.912Z,67.97
2023-10-29T21:37:46.448Z,68.38
2023-10-29T21:40:13.423Z,68.31
2023-10-29T21:42:40.308Z,68.34
2023-10-29T21:45:09.049Z,68.59
2023-10-29T21:47:38.998Z,68.96
2023-10-29T21:50:06.518Z,69.57
2023-10-29T21:52:33.647Z,69.05
2023-10-29T21:55:00.684Z,69.44
2023-10-29T21:57:28.252Z,68.29
2023-10-29T21:59:55.150Z,69.18
2023-10-29T22:02:22.011Z,69.58
2023-10-29T22:04:48.903Z,69.36
2023-10-29T22:07:15.820Z,69.16
2023-10-29T22:09:42.719Z,68.48
2023-10-29T22:12:09.848Z,69.79
2023-10-29T22:14:37.036Z,69.31
2023-10-29T22:17:04.032Z,69.49
2023-10-29T22:19:30.901Z,69.24
2023-10-29T22:21:57.780Z,69.44
2023-10-29T22:24:24.690Z,70.32
2023-10-29T22:26:51.650Z,69.34
2023-10-29T22:29:18.491Z,70.04
2023-10-29T22:31:45.387Z,69.81
2023-10-29T22:34:12.262Z,70.47
2023-10-29T22:36:39.597Z,69.50
2023-10-29T22:39:06.756Z,69.65
2023-10-29T22:41:34.130Z,70.25
2023-10-29T22:44:01.028Z,70.32
2023-10-29T22:46:28.066Z,70.41
2023-10-29T22:48:54.959Z,70.82
2023-10-29T22:51:22.064Z,70.03
2023-10-29T22:53:48.949Z,70.54
2023-10-29T22:56:15.902Z,70.53
2023-10-29T22:58:42.790Z,70.71
2023-10-29T23:01:12.604Z,70.18
2023-10-29T23:03:39.744Z,70.26
2023-10-29T23:06:07.756Z,70.99
2023-10-29T23:08:34.907Z,71.37
2023-10-29T23:11:02.191Z,71.59
2023-10-29T23:13:30.252Z,71.34
2023-10-29T23:15:57.401Z,71.12
2023-10-29T23:18:25.857Z,70.74
2023-10-29T23:20:53.552Z,70.79
2023-10-29T23:23:20.607Z,70.73
2023-10-29T23:25:47.523Z,71.79
2023-10-29T23:28:26.846Z,71.36
2023-10-29T23:30:58.069Z,70.94
2023-10-29T23:33:25.103Z,70.87
2023-10-29T23:35:53.561Z,71.28
2023-10-29T23:38:20.638Z,71.60
2023-10-29T23:40:48.001Z,71.40
2023-10-29T23:43:14.942Z,71.45
2023-10-29T23:45:41.890Z,71.60
2023-10-29T23:48:09.059Z,71.46
2023-10-29T23:50:36.060Z,72.07
2023-10-29T23:53:02.953Z,71.46
2023-10-29T23:55:29.826Z,72.45
2023-10-29T23:57:57.048Z,72.15
